FFT8385 KMIA-KJAX
Flight info
| Callsign | FFT8385 |
|---|---|
| Flight time | 0h 54m |
| Altitude | 30000 |
| Route | FLMGO2 STYMY ORL HAINY QUBEN2 |
| Aircraft | A20N/M-SDE2E3FGHIRWXY/LB1 |
Departure
| Time | 2026-05-03 22:32 |
|---|---|
| Airport | Miami International Airport (KMIA) |
Arrival
| Time | 2026-05-03 23:27 |
|---|---|
| Airport | Jacksonville International Airport (KJAX) |
| Time | Latitude | Longitude | Altitude | Speed | Heading |
|---|---|---|---|---|---|
| 2026-05-03 22:04 | 25.79153 | -80.27957 | 12 ft | 0 kts | 121° |
| 2026-05-03 22:18 | 25.79153 | -80.27958 | 12 ft | 1 kts | 121° |
| 2026-05-03 22:18 | 25.79160 | -80.27969 | 12 ft | 2 kts | 136° |
| 2026-05-03 22:19 | 25.79171 | -80.27979 | 12 ft | 2 kts | 149° |
| 2026-05-03 22:19 | 25.79184 | -80.27985 | 12 ft | 2 kts | 164° |
| 2026-05-03 22:19 | 25.79198 | -80.27988 | 12 ft | 2 kts | 178° |
| 2026-05-03 22:19 | 25.79213 | -80.27987 | 12 ft | 2 kts | 193° |
| 2026-05-03 22:20 | 25.79229 | -80.27981 | 12 ft | 2 kts | 209° |
| 2026-05-03 22:20 | 25.79241 | -80.27971 | 12 ft | 2 kts | 225° |
| 2026-05-03 22:20 | 25.79249 | -80.27962 | 12 ft | 0 kts | 225° |
| 2026-05-03 22:20 | 25.79250 | -80.27960 | 12 ft | 0 kts | 225° |
| 2026-05-03 22:24 | 25.79244 | -80.27968 | 12 ft | 5 kts | 224° |
| 2026-05-03 22:24 | 25.79195 | -80.28008 | 12 ft | 14 kts | 210° |
| 2026-05-03 22:24 | 25.79121 | -80.28050 | 12 ft | 15 kts | 206° |
| 2026-05-03 22:24 | 25.79046 | -80.28108 | 12 ft | 15 kts | 230° |
| 2026-05-03 22:25 | 25.79010 | -80.28194 | 12 ft | 15 kts | 270° |
| 2026-05-03 22:25 | 25.79050 | -80.28298 | 12 ft | 16 kts | 297° |
| 2026-05-03 22:25 | 25.79103 | -80.28399 | 12 ft | 16 kts | 303° |
| 2026-05-03 22:25 | 25.79167 | -80.28493 | 12 ft | 17 kts | 300° |
| 2026-05-03 22:26 | 25.79215 | -80.28585 | 12 ft | 16 kts | 300° |
| 2026-05-03 22:26 | 25.79245 | -80.28646 | 13 ft | 16 kts | 298° |
| 2026-05-03 22:26 | 25.79292 | -80.28739 | 14 ft | 16 kts | 299° |
| 2026-05-03 22:26 | 25.79317 | -80.28789 | 14 ft | 16 kts | 301° |
| 2026-05-03 22:27 | 25.79354 | -80.28858 | 14 ft | 16 kts | 299° |
| 2026-05-03 22:27 | 25.79403 | -80.28954 | 13 ft | 18 kts | 302° |
| 2026-05-03 22:27 | 25.79459 | -80.29062 | 12 ft | 19 kts | 300° |
| 2026-05-03 22:27 | 25.79512 | -80.29165 | 12 ft | 14 kts | 299° |
| 2026-05-03 22:28 | 25.79558 | -80.29256 | 12 ft | 15 kts | 299° |
| 2026-05-03 22:28 | 25.79609 | -80.29355 | 12 ft | 15 kts | 300° |
| 2026-05-03 22:28 | 25.79662 | -80.29456 | 12 ft | 16 kts | 300° |
| 2026-05-03 22:28 | 25.79711 | -80.29552 | 12 ft | 16 kts | 298° |
| 2026-05-03 22:29 | 25.79763 | -80.29656 | 12 ft | 17 kts | 299° |
| 2026-05-03 22:29 | 25.79814 | -80.29756 | 12 ft | 17 kts | 299° |
| 2026-05-03 22:29 | 25.79863 | -80.29852 | 12 ft | 17 kts | 300° |
| 2026-05-03 22:29 | 25.79921 | -80.29961 | 12 ft | 12 kts | 299° |
| 2026-05-03 22:30 | 25.79924 | -80.29968 | 12 ft | 0 kts | 298° |
| 2026-05-03 22:30 | 25.79925 | -80.29970 | 12 ft | 1 kts | 298° |
| 2026-05-03 22:30 | 25.79956 | -80.30031 | 12 ft | 13 kts | 303° |
| 2026-05-03 22:30 | 25.80017 | -80.30096 | 12 ft | 13 kts | 347° |
| 2026-05-03 22:31 | 25.80073 | -80.30052 | 12 ft | 13 kts | 78° |
| 2026-05-03 22:31 | 25.80077 | -80.29967 | 12 ft | 19 kts | 88° |
| 2026-05-03 22:31 | 25.80088 | -80.29713 | 12 ft | 72 kts | 87° |
| 2026-05-03 22:31 | 25.80114 | -80.29071 | 12 ft | 126 kts | 87° |
| 2026-05-03 22:32 | 25.80151 | -80.28200 | 83 ft | 158 kts | 87° |
| 2026-05-03 22:32 | 25.80192 | -80.27051 | 593 ft | 160 kts | 86° |
| 2026-05-03 22:32 | 25.80231 | -80.25878 | 1149 ft | 164 kts | 86° |
| 2026-05-03 22:33 | 25.80215 | -80.23693 | 2173 ft | 169 kts | 89° |
| 2026-05-03 22:33 | 25.80259 | -80.22341 | 2533 ft | 184 kts | 83° |
| 2026-05-03 22:33 | 25.80372 | -80.20891 | 2893 ft | 200 kts | 84° |
| 2026-05-03 22:33 | 25.80504 | -80.19029 | 3254 ft | 226 kts | 82° |
| 2026-05-03 22:34 | 25.81137 | -80.17193 | 3715 ft | 244 kts | 49° |
| 2026-05-03 22:34 | 25.84252 | -80.15762 | 4658 ft | 268 kts | 358° |
| 2026-05-03 22:34 | 25.86119 | -80.15765 | 5337 ft | 275 kts | 358° |
| 2026-05-03 22:35 | 25.88156 | -80.15754 | 6138 ft | 279 kts | 355° |
| 2026-05-03 22:35 | 25.90138 | -80.16000 | 6938 ft | 281 kts | 345° |
| 2026-05-03 22:35 | 25.92161 | -80.16608 | 7779 ft | 283 kts | 339° |
| 2026-05-03 22:35 | 25.94131 | -80.17313 | 8592 ft | 286 kts | 338° |
| 2026-05-03 22:36 | 25.96285 | -80.18090 | 9468 ft | 290 kts | 338° |
| 2026-05-03 22:36 | 25.98269 | -80.18948 | 10290 ft | 290 kts | 328° |
| 2026-05-03 22:36 | 25.99960 | -80.20097 | 10821 ft | 297 kts | 318° |
| 2026-05-03 22:36 | 26.01774 | -80.21811 | 11209 ft | 315 kts | 314° |
| 2026-05-03 22:37 | 26.05006 | -80.25072 | 12287 ft | 331 kts | 314° |
| 2026-05-03 22:37 | 26.06833 | -80.26903 | 13027 ft | 334 kts | 314° |
| 2026-05-03 22:37 | 26.09039 | -80.29106 | 13853 ft | 338 kts | 314° |
| 2026-05-03 22:38 | 26.11039 | -80.31097 | 14625 ft | 341 kts | 313° |
| 2026-05-03 22:38 | 26.12918 | -80.32964 | 15352 ft | 342 kts | 313° |
| 2026-05-03 22:38 | 26.15126 | -80.35165 | 16162 ft | 344 kts | 313° |
| 2026-05-03 22:38 | 26.17364 | -80.37392 | 16939 ft | 347 kts | 313° |
| 2026-05-03 22:39 | 26.19295 | -80.39316 | 17592 ft | 350 kts | 313° |
| 2026-05-03 22:39 | 26.21120 | -80.41090 | 18221 ft | 354 kts | 315° |
| 2026-05-03 22:39 | 26.23113 | -80.42706 | 18817 ft | 360 kts | 321° |
| 2026-05-03 22:39 | 26.25277 | -80.44114 | 19403 ft | 367 kts | 327° |
| 2026-05-03 22:40 | 26.27593 | -80.45383 | 19960 ft | 372 kts | 328° |
| 2026-05-03 22:40 | 26.29959 | -80.46635 | 20506 ft | 376 kts | 328° |
| 2026-05-03 22:40 | 26.32311 | -80.47871 | 21053 ft | 379 kts | 328° |
| 2026-05-03 22:40 | 26.34709 | -80.49138 | 21534 ft | 384 kts | 328° |
| 2026-05-03 22:41 | 26.37136 | -80.50427 | 21944 ft | 390 kts | 327° |
| 2026-05-03 22:41 | 26.39587 | -80.51731 | 22403 ft | 394 kts | 327° |
| 2026-05-03 22:41 | 26.42080 | -80.53059 | 22864 ft | 397 kts | 327° |
| 2026-05-03 22:41 | 26.44581 | -80.54390 | 23359 ft | 400 kts | 327° |
| 2026-05-03 22:42 | 26.47129 | -80.55661 | 23851 ft | 406 kts | 330° |
| 2026-05-03 22:42 | 26.49778 | -80.56789 | 24330 ft | 412 kts | 333° |
| 2026-05-03 22:42 | 26.52536 | -80.57760 | 24781 ft | 418 kts | 336° |
| 2026-05-03 22:42 | 26.55361 | -80.58664 | 25221 ft | 422 kts | 336° |
| 2026-05-03 22:43 | 26.58167 | -80.59547 | 25660 ft | 424 kts | 336° |
| 2026-05-03 22:43 | 26.61014 | -80.60443 | 26120 ft | 426 kts | 336° |
| 2026-05-03 22:43 | 26.63894 | -80.61349 | 26720 ft | 424 kts | 336° |
| 2026-05-03 22:43 | 26.66695 | -80.62234 | 27224 ft | 424 kts | 335° |
| 2026-05-03 22:44 | 26.69566 | -80.63147 | 27622 ft | 426 kts | 335° |
| 2026-05-03 22:44 | 26.72418 | -80.64055 | 28132 ft | 426 kts | 335° |
| 2026-05-03 22:44 | 26.75256 | -80.64957 | 28665 ft | 424 kts | 335° |
| 2026-05-03 22:44 | 26.78112 | -80.65868 | 29098 ft | 426 kts | 334° |
| 2026-05-03 22:45 | 26.80929 | -80.66768 | 29514 ft | 427 kts | 334° |
| 2026-05-03 22:45 | 26.83772 | -80.67677 | 29897 ft | 429 kts | 334° |
| 2026-05-03 22:45 | 26.86656 | -80.68602 | 30002 ft | 431 kts | 334° |
| 2026-05-03 22:46 | 26.92272 | -80.70454 | 30016 ft | 428 kts | 332° |
| 2026-05-03 22:46 | 26.97835 | -80.72536 | 30020 ft | 426 kts | 331° |
| 2026-05-03 22:47 | 27.03417 | -80.74656 | 30027 ft | 426 kts | 331° |
| 2026-05-03 22:47 | 27.09048 | -80.76791 | 30018 ft | 425 kts | 330° |
| 2026-05-03 22:48 | 27.14661 | -80.78921 | 30029 ft | 425 kts | 330° |
| 2026-05-03 22:48 | 27.20258 | -80.81048 | 30045 ft | 425 kts | 330° |
| 2026-05-03 22:49 | 27.25879 | -80.83188 | 30037 ft | 426 kts | 330° |
| 2026-05-03 22:49 | 27.31468 | -80.85313 | 30040 ft | 425 kts | 330° |
| 2026-05-03 22:50 | 27.37043 | -80.87544 | 30040 ft | 422 kts | 329° |
| 2026-05-03 22:50 | 27.42542 | -80.89819 | 30034 ft | 423 kts | 329° |
| 2026-05-03 22:51 | 27.48018 | -80.92081 | 30040 ft | 424 kts | 329° |
| 2026-05-03 22:51 | 27.53561 | -80.94365 | 30040 ft | 424 kts | 329° |
| 2026-05-03 22:52 | 27.59086 | -80.96645 | 30052 ft | 425 kts | 329° |
| 2026-05-03 22:52 | 27.64636 | -80.98936 | 30041 ft | 424 kts | 329° |
| 2026-05-03 22:53 | 27.70167 | -81.01223 | 30043 ft | 424 kts | 329° |
| 2026-05-03 22:53 | 27.75743 | -81.03532 | 30044 ft | 423 kts | 329° |
| 2026-05-03 22:54 | 27.81241 | -81.05810 | 30050 ft | 424 kts | 329° |
| 2026-05-03 22:54 | 27.86725 | -81.08085 | 30055 ft | 424 kts | 330° |
| 2026-05-03 22:55 | 27.92205 | -81.10359 | 30052 ft | 423 kts | 329° |
| 2026-05-03 22:55 | 27.97767 | -81.12678 | 30045 ft | 426 kts | 329° |
| 2026-05-03 22:56 | 28.03345 | -81.14988 | 30052 ft | 427 kts | 330° |
| 2026-05-03 22:56 | 28.09018 | -81.17074 | 30047 ft | 429 kts | 332° |
| 2026-05-03 22:57 | 28.14698 | -81.19115 | 30047 ft | 429 kts | 332° |
| 2026-05-03 22:57 | 28.20409 | -81.21175 | 30060 ft | 428 kts | 332° |
| 2026-05-03 22:58 | 28.26060 | -81.23220 | 30049 ft | 428 kts | 332° |
| 2026-05-03 22:58 | 28.31677 | -81.25260 | 30056 ft | 430 kts | 332° |
| 2026-05-03 22:59 | 28.37363 | -81.27325 | 30060 ft | 430 kts | 332° |
| 2026-05-03 22:59 | 28.43055 | -81.29395 | 30068 ft | 429 kts | 332° |
| 2026-05-03 23:00 | 28.48619 | -81.31422 | 30057 ft | 430 kts | 332° |
| 2026-05-03 23:00 | 28.54428 | -81.33124 | 30061 ft | 438 kts | 339° |
| 2026-05-03 23:01 | 28.60474 | -81.34057 | 30056 ft | 441 kts | 345° |
| 2026-05-03 23:01 | 28.66605 | -81.34578 | 30064 ft | 440 kts | 346° |
| 2026-05-03 23:02 | 28.72732 | -81.35088 | 30062 ft | 440 kts | 346° |
| 2026-05-03 23:02 | 28.78863 | -81.35616 | 30061 ft | 440 kts | 346° |
| 2026-05-03 23:03 | 28.85012 | -81.36156 | 29421 ft | 444 kts | 346° |
| 2026-05-03 23:03 | 28.88101 | -81.36427 | 28755 ft | 445 kts | 346° |
| 2026-05-03 23:03 | 28.91172 | -81.36694 | 28146 ft | 444 kts | 347° |
| 2026-05-03 23:03 | 28.94242 | -81.36960 | 27480 ft | 444 kts | 347° |
| 2026-05-03 23:04 | 28.97332 | -81.37228 | 26797 ft | 444 kts | 347° |
| 2026-05-03 23:04 | 29.00423 | -81.37502 | 26186 ft | 442 kts | 347° |
| 2026-05-03 23:04 | 29.03506 | -81.37823 | 25719 ft | 436 kts | 346° |
| 2026-05-03 23:04 | 29.06516 | -81.38155 | 25267 ft | 430 kts | 346° |
| 2026-05-03 23:05 | 29.09472 | -81.38485 | 24836 ft | 425 kts | 346° |
| 2026-05-03 23:05 | 29.12418 | -81.38811 | 24401 ft | 420 kts | 346° |
| 2026-05-03 23:05 | 29.15293 | -81.39130 | 23969 ft | 415 kts | 346° |
| 2026-05-03 23:05 | 29.18073 | -81.39439 | 23580 ft | 410 kts | 346° |
| 2026-05-03 23:06 | 29.20897 | -81.39751 | 23138 ft | 406 kts | 346° |
| 2026-05-03 23:06 | 29.23670 | -81.40057 | 22716 ft | 402 kts | 346° |
| 2026-05-03 23:06 | 29.26448 | -81.40367 | 22255 ft | 400 kts | 346° |
| 2026-05-03 23:06 | 29.29246 | -81.40678 | 21753 ft | 398 kts | 347° |
| 2026-05-03 23:07 | 29.31998 | -81.40982 | 21289 ft | 396 kts | 347° |
| 2026-05-03 23:07 | 29.34748 | -81.41286 | 20823 ft | 393 kts | 347° |
| 2026-05-03 23:07 | 29.37460 | -81.41585 | 20371 ft | 391 kts | 347° |
| 2026-05-03 23:07 | 29.40192 | -81.41887 | 19928 ft | 388 kts | 347° |
| 2026-05-03 23:08 | 29.42888 | -81.42188 | 19470 ft | 386 kts | 347° |
| 2026-05-03 23:08 | 29.45572 | -81.42485 | 19006 ft | 383 kts | 347° |
| 2026-05-03 23:08 | 29.48200 | -81.42778 | 18560 ft | 381 kts | 347° |
| 2026-05-03 23:08 | 29.50851 | -81.43074 | 18089 ft | 380 kts | 348° |
| 2026-05-03 23:09 | 29.53484 | -81.43366 | 17633 ft | 377 kts | 347° |
| 2026-05-03 23:09 | 29.56076 | -81.43655 | 17206 ft | 374 kts | 346° |
| 2026-05-03 23:09 | 29.58537 | -81.44386 | 16738 ft | 359 kts | 329° |
| 2026-05-03 23:09 | 29.60623 | -81.45888 | 16268 ft | 344 kts | 313° |
| 2026-05-03 23:10 | 29.62323 | -81.47791 | 15856 ft | 337 kts | 308° |
| 2026-05-03 23:10 | 29.63960 | -81.49734 | 15426 ft | 334 kts | 308° |
| 2026-05-03 23:10 | 29.65576 | -81.51642 | 15005 ft | 332 kts | 309° |
| 2026-05-03 23:10 | 29.67199 | -81.53535 | 14617 ft | 328 kts | 309° |
| 2026-05-03 23:11 | 29.68801 | -81.55388 | 14212 ft | 325 kts | 309° |
| 2026-05-03 23:11 | 29.70398 | -81.57230 | 13782 ft | 323 kts | 309° |
| 2026-05-03 23:11 | 29.71967 | -81.59046 | 13353 ft | 320 kts | 309° |
| 2026-05-03 23:11 | 29.73542 | -81.60873 | 12961 ft | 317 kts | 310° |
| 2026-05-03 23:12 | 29.75054 | -81.62620 | 12584 ft | 314 kts | 311° |
| 2026-05-03 23:12 | 29.76778 | -81.64180 | 12178 ft | 319 kts | 327° |
| 2026-05-03 23:12 | 29.78873 | -81.65035 | 11769 ft | 326 kts | 345° |
| 2026-05-03 23:12 | 29.81155 | -81.65305 | 11378 ft | 327 kts | 351° |
| 2026-05-03 23:13 | 29.83438 | -81.65485 | 10964 ft | 326 kts | 351° |
| 2026-05-03 23:13 | 29.85698 | -81.65661 | 10552 ft | 324 kts | 351° |
| 2026-05-03 23:13 | 29.87964 | -81.65873 | 10148 ft | 320 kts | 347° |
| 2026-05-03 23:13 | 29.90045 | -81.66537 | 9762 ft | 305 kts | 335° |
| 2026-05-03 23:14 | 29.91805 | -81.67332 | 9377 ft | 291 kts | 333° |
| 2026-05-03 23:14 | 29.93699 | -81.68241 | 8972 ft | 277 kts | 333° |
| 2026-05-03 23:14 | 29.95443 | -81.69102 | 8616 ft | 276 kts | 333° |
| 2026-05-03 23:14 | 29.97200 | -81.69980 | 8217 ft | 275 kts | 333° |
| 2026-05-03 23:15 | 29.98919 | -81.70858 | 7817 ft | 274 kts | 333° |
| 2026-05-03 23:15 | 30.00630 | -81.71738 | 7433 ft | 273 kts | 333° |
| 2026-05-03 23:15 | 30.02343 | -81.72632 | 7044 ft | 272 kts | 333° |
| 2026-05-03 23:15 | 30.04071 | -81.73543 | 6650 ft | 271 kts | 333° |
| 2026-05-03 23:16 | 30.05764 | -81.74445 | 6265 ft | 271 kts | 333° |
| 2026-05-03 23:16 | 30.07475 | -81.75364 | 5985 ft | 265 kts | 333° |
| 2026-05-03 23:16 | 30.09145 | -81.76274 | 5970 ft | 266 kts | 333° |
| 2026-05-03 23:16 | 30.10755 | -81.77155 | 5970 ft | 266 kts | 333° |
| 2026-05-03 23:17 | 30.12387 | -81.78056 | 5969 ft | 266 kts | 333° |
| 2026-05-03 23:17 | 30.14033 | -81.78969 | 5969 ft | 267 kts | 333° |
| 2026-05-03 23:17 | 30.15685 | -81.79884 | 5969 ft | 266 kts | 333° |
| 2026-05-03 23:17 | 30.17287 | -81.80769 | 5968 ft | 267 kts | 333° |
| 2026-05-03 23:18 | 30.18914 | -81.81674 | 5966 ft | 267 kts | 333° |
| 2026-05-03 23:18 | 30.20555 | -81.82589 | 5967 ft | 268 kts | 333° |
| 2026-05-03 23:18 | 30.22240 | -81.83527 | 5967 ft | 268 kts | 333° |
| 2026-05-03 23:18 | 30.23922 | -81.84461 | 5968 ft | 269 kts | 333° |
| 2026-05-03 23:19 | 30.25605 | -81.85389 | 5967 ft | 266 kts | 333° |
| 2026-05-03 23:19 | 30.27222 | -81.86276 | 5961 ft | 250 kts | 333° |
| 2026-05-03 23:19 | 30.28758 | -81.87117 | 5957 ft | 235 kts | 333° |
| 2026-05-03 23:19 | 30.30193 | -81.87909 | 5788 ft | 228 kts | 333° |
| 2026-05-03 23:20 | 30.31619 | -81.88700 | 5543 ft | 225 kts | 333° |
| 2026-05-03 23:20 | 30.33039 | -81.89493 | 5294 ft | 222 kts | 333° |
| 2026-05-03 23:20 | 30.34418 | -81.90273 | 5050 ft | 220 kts | 333° |
| 2026-05-03 23:20 | 30.35781 | -81.91058 | 4801 ft | 219 kts | 333° |
| 2026-05-03 23:21 | 30.37144 | -81.91859 | 4490 ft | 222 kts | 333° |
| 2026-05-03 23:21 | 30.38563 | -81.92581 | 4161 ft | 222 kts | 348° |
| 2026-05-03 23:21 | 30.40070 | -81.92828 | 3858 ft | 221 kts | 356° |
| 2026-05-03 23:21 | 30.41609 | -81.92860 | 3533 ft | 221 kts | 12° |
| 2026-05-03 23:22 | 30.43705 | -81.90537 | 2962 ft | 215 kts | 75° |
| 2026-05-03 23:22 | 30.44027 | -81.88878 | 2840 ft | 206 kts | 76° |
| 2026-05-03 23:22 | 30.44367 | -81.87342 | 2710 ft | 198 kts | 73° |
| 2026-05-03 23:23 | 30.44792 | -81.85827 | 2584 ft | 195 kts | 71° |
| 2026-05-03 23:23 | 30.45232 | -81.84377 | 2571 ft | 183 kts | 70° |
| 2026-05-03 23:23 | 30.45655 | -81.83004 | 2335 ft | 178 kts | 71° |
| 2026-05-03 23:23 | 30.46060 | -81.81681 | 2099 ft | 171 kts | 71° |
| 2026-05-03 23:24 | 30.46447 | -81.80415 | 1851 ft | 165 kts | 71° |
| 2026-05-03 23:24 | 30.46813 | -81.79215 | 1611 ft | 150 kts | 71° |
| 2026-05-03 23:24 | 30.47149 | -81.78108 | 1423 ft | 140 kts | 71° |
| 2026-05-03 23:24 | 30.47460 | -81.77087 | 1241 ft | 132 kts | 71° |
| 2026-05-03 23:25 | 30.47763 | -81.76095 | 1091 ft | 130 kts | 71° |
| 2026-05-03 23:25 | 30.48063 | -81.75109 | 929 ft | 130 kts | 71° |
| 2026-05-03 23:25 | 30.48363 | -81.74129 | 767 ft | 129 kts | 72° |
| 2026-05-03 23:25 | 30.48662 | -81.73150 | 599 ft | 129 kts | 72° |
| 2026-05-03 23:26 | 30.48948 | -81.72215 | 424 ft | 129 kts | 72° |
| 2026-05-03 23:26 | 30.49223 | -81.71311 | 248 ft | 127 kts | 72° |
| 2026-05-03 23:26 | 30.49435 | -81.70606 | 152 ft | 128 kts | 71° |
| 2026-05-03 23:26 | 30.49712 | -81.69701 | 30 ft | 125 kts | 71° |
| 2026-05-03 23:27 | 30.50000 | -81.68761 | 25 ft | 73 kts | 70° |
| 2026-05-03 23:27 | 30.50134 | -81.68325 | 25 ft | 41 kts | 71° |
| 2026-05-03 23:27 | 30.50166 | -81.68149 | 25 ft | 29 kts | 90° |
| 2026-05-03 23:27 | 30.50120 | -81.68018 | 25 ft | 12 kts | 140° |
| 2026-05-03 23:28 | 30.50109 | -81.68010 | 25 ft | 0 kts | 151° |
| 2026-05-03 23:28 | 30.50073 | -81.68003 | 25 ft | 9 kts | 194° |
| 2026-05-03 23:29 | 30.50037 | -81.68068 | 25 ft | 11 kts | 249° |
| 2026-05-03 23:29 | 30.50011 | -81.68153 | 25 ft | 12 kts | 251° |
| 2026-05-03 23:29 | 30.49983 | -81.68245 | 25 ft | 13 kts | 251° |
| 2026-05-03 23:29 | 30.49952 | -81.68348 | 25 ft | 14 kts | 250° |
| 2026-05-03 23:30 | 30.49907 | -81.68435 | 25 ft | 12 kts | 210° |
| 2026-05-03 23:30 | 30.49830 | -81.68456 | 25 ft | 12 kts | 189° |
| 2026-05-03 23:30 | 30.49755 | -81.68471 | 25 ft | 13 kts | 190° |
| 2026-05-03 23:30 | 30.49660 | -81.68493 | 25 ft | 14 kts | 191° |
| 2026-05-03 23:31 | 30.49565 | -81.68514 | 25 ft | 14 kts | 191° |
| 2026-05-03 23:31 | 30.49479 | -81.68520 | 25 ft | 10 kts | 188° |
| 2026-05-03 23:31 | 30.49435 | -81.68548 | 25 ft | 5 kts | 202° |
| 2026-05-03 23:31 | 30.49408 | -81.68556 | 25 ft | 0 kts | 194° |
| 2026-05-03 23:32 | 30.49402 | -81.68559 | 25 ft | 1 kts | 198° |
| 2026-05-03 23:32 | 30.49400 | -81.68559 | 25 ft | 0 kts | 195° |